createdAt,value
2019-05-18T00:00:59.939Z,91.87
2019-05-18T00:03:28.420Z,91.85
2019-05-18T00:05:56.821Z,92.17
2019-05-18T00:08:25.255Z,92.02
2019-05-18T00:10:53.648Z,92.10
2019-05-18T00:13:22.126Z,92.02
2019-05-18T00:15:50.551Z,91.92
2019-05-18T00:18:19.019Z,92.37
2019-05-18T00:20:47.424Z,92.41
2019-05-18T00:23:15.889Z,92.24
2019-05-18T00:25:44.376Z,92.32
2019-05-18T00:28:12.769Z,92.08
2019-05-18T00:30:41.193Z,92.22
2019-05-18T00:33:09.614Z,91.69
2019-05-18T00:35:38.049Z,91.41
2019-05-18T00:38:06.437Z,91.96
2019-05-18T00:40:34.917Z,91.58
2019-05-18T00:43:03.413Z,91.52
2019-05-18T00:45:31.828Z,91.81
2019-05-18T00:48:00.231Z,90.95
2019-05-18T00:50:28.627Z,91.54
2019-05-18T00:52:57.117Z,91.27
2019-05-18T00:55:25.525Z,91.00
2019-05-18T00:57:53.957Z,91.59
2019-05-18T01:00:22.615Z,91.26
2019-05-18T01:02:51.018Z,91.27
2019-05-18T01:05:19.466Z,90.56
2019-05-18T01:07:47.916Z,91.42
2019-05-18T01:10:16.562Z,90.80
2019-05-18T01:12:44.959Z,92.06
2019-05-18T01:15:13.982Z,91.69
2019-05-18T01:17:56.385Z,91.51
2019-05-18T01:20:12.865Z,91.42
2019-05-18T01:22:41.267Z,91.78
2019-05-18T01:25:09.843Z,91.51
2019-05-18T01:27:38.233Z,92.21
2019-05-18T01:30:08.003Z,91.69
2019-05-18T01:32:36.474Z,91.71
2019-05-18T01:35:08.402Z,91.70
2019-05-18T01:37:36.825Z,91.67
2019-05-18T01:40:06.956Z,91.54
2019-05-18T01:42:35.378Z,91.01
2019-05-18T01:45:16.271Z,91.63
2019-05-18T01:47:38.455Z,91.92
2019-05-18T01:50:08.042Z,92.28
2019-05-18T01:52:36.532Z,91.88
2019-05-18T01:55:06.849Z,91.16
2019-05-18T01:57:35.321Z,91.48
2019-05-18T02:00:05.886Z,91.88
2019-05-18T02:02:34.263Z,92.29
2019-05-18T02:05:02.896Z,92.54
2019-05-18T02:07:31.252Z,91.70
2019-05-18T02:09:59.648Z,91.82
2019-05-18T02:12:28.065Z,92.27
2019-05-18T02:14:56.530Z,92.39
2019-05-18T02:17:25.023Z,92.18
2019-05-18T02:19:53.425Z,92.37
2019-05-18T02:22:21.893Z,92.14
2019-05-18T02:24:50.310Z,92.89
2019-05-18T02:27:18.717Z,93.16
2019-05-18T02:29:47.231Z,92.85
2019-05-18T02:32:15.675Z,92.83
2019-05-18T02:34:44.074Z,93.17
2019-05-18T02:37:12.555Z,93.51
2019-05-18T02:39:40.969Z,93.28
2019-05-18T02:42:09.474Z,93.04
2019-05-18T02:44:37.918Z,92.63
2019-05-18T02:47:06.339Z,92.78
2019-05-18T02:49:34.759Z,93.23
2019-05-18T02:52:03.148Z,93.21
2019-05-18T02:54:31.598Z,93.12
2019-05-18T02:57:00.045Z,92.94
2019-05-18T02:59:28.429Z,93.41
2019-05-18T03:01:56.829Z,93.59
2019-05-18T03:04:25.306Z,93.20
2019-05-18T03:06:53.734Z,93.30
2019-05-18T03:09:22.266Z,92.86
2019-05-18T03:11:50.698Z,92.99
2019-05-18T03:14:19.208Z,93.35
2019-05-18T03:16:47.673Z,92.98
2019-05-18T03:19:16.224Z,93.58
2019-05-18T03:21:45.706Z,93.55
2019-05-18T03:24:14.184Z,93.60
2019-05-18T03:26:42.607Z,93.45
2019-05-18T03:29:10.993Z,93.72
2019-05-18T03:31:39.424Z,93.64
2019-05-18T03:34:07.896Z,93.54
2019-05-18T03:36:36.538Z,93.22
2019-05-18T03:39:06.176Z,93.29
2019-05-18T03:41:34.690Z,93.69
2019-05-18T03:44:03.184Z,93.66
2019-05-18T03:46:31.660Z,93.68
2019-05-18T03:49:00.056Z,93.83
2019-05-18T03:51:28.466Z,93.49
2019-05-18T03:53:56.876Z,93.39
2019-05-18T03:56:25.291Z,93.22
2019-05-18T03:58:53.713Z,93.71
2019-05-18T04:01:22.249Z,93.63
2019-05-18T04:03:50.715Z,93.36
2019-05-18T04:06:19.119Z,93.44
2019-05-18T04:08:47.568Z,93.25
2019-05-18T04:11:15.970Z,93.41
2019-05-18T04:13:44.365Z,93.50
2019-05-18T04:16:12.813Z,93.80
2019-05-18T04:18:41.199Z,94.17
2019-05-18T04:21:09.598Z,93.76
2019-05-18T04:23:38.016Z,93.69
2019-05-18T04:26:06.409Z,94.05
2019-05-18T04:28:34.832Z,94.02
2019-05-18T04:31:03.291Z,93.88
2019-05-18T04:33:31.750Z,93.79
2019-05-18T04:36:00.248Z,94.35
2019-05-18T04:38:28.669Z,94.42
2019-05-18T04:40:57.130Z,94.48
2019-05-18T04:43:25.560Z,94.51
2019-05-18T04:45:53.953Z,94.58
2019-05-18T04:48:22.405Z,94.67
2019-05-18T04:50:50.883Z,94.69
2019-05-18T04:53:19.279Z,94.78
2019-05-18T04:55:47.696Z,94.94
2019-05-18T04:58:16.203Z,95.17
2019-05-18T05:00:44.921Z,95.31
2019-05-18T05:03:13.442Z,95.40
2019-05-18T05:05:41.867Z,95.19
2019-05-18T05:08:10.585Z,95.38
2019-05-18T05:10:38.936Z,95.60
2019-05-18T05:13:07.372Z,95.68
2019-05-18T05:15:35.776Z,95.63
2019-05-18T05:18:04.260Z,95.54
2019-05-18T05:20:32.688Z,95.74
2019-05-18T05:23:01.103Z,95.88
2019-05-18T05:25:29.524Z,95.71
2019-05-18T05:27:57.952Z,95.82
2019-05-18T05:30:26.373Z,96.26
2019-05-18T05:32:54.840Z,96.54
2019-05-18T05:35:23.275Z,96.62
2019-05-18T05:37:51.672Z,96.49
2019-05-18T05:40:20.166Z,96.44
2019-05-18T05:42:48.661Z,96.38
2019-05-18T05:45:17.434Z,96.55
2019-05-18T05:47:45.868Z,96.65
2019-05-18T05:50:14.514Z,96.84
2019-05-18T05:52:43.059Z,96.86
2019-05-18T05:55:11.610Z,96.61
2019-05-18T05:57:40.085Z,96.50
2019-05-18T06:00:09.645Z,96.74
2019-05-18T06:02:38.053Z,96.85
2019-05-18T06:05:07.017Z,96.69
2019-05-18T06:07:35.689Z,96.77
2019-05-18T06:10:05.837Z,96.34
2019-05-18T06:12:34.257Z,96.46
2019-05-18T06:15:02.762Z,96.34
2019-05-18T06:17:31.153Z,96.16
2019-05-18T06:19:59.577Z,96.22
2019-05-18T06:22:27.998Z,96.18
2019-05-18T06:24:56.422Z,96.28
2019-05-18T06:27:24.830Z,96.08
2019-05-18T06:29:53.319Z,95.92
2019-05-18T06:32:21.806Z,95.79
2019-05-18T06:34:50.212Z,95.84
2019-05-18T06:37:18.632Z,95.91
2019-05-18T06:39:47.088Z,95.31
2019-05-18T06:42:15.514Z,94.97
2019-05-18T06:44:43.979Z,94.66
2019-05-18T06:47:12.446Z,94.13
2019-05-18T06:49:40.874Z,94.43
2019-05-18T06:52:09.279Z,94.35
2019-05-18T06:54:37.786Z,94.28
2019-05-18T06:57:07.145Z,93.73
2019-05-18T06:59:37.693Z,94.05
2019-05-18T07:02:06.111Z,93.99
2019-05-18T07:04:34.512Z,94.16
2019-05-18T07:07:02.929Z,93.86
2019-05-18T07:09:31.338Z,93.85
2019-05-18T07:11:59.798Z,93.94
2019-05-18T07:14:28.192Z,93.30
2019-05-18T07:16:56.599Z,93.01
2019-05-18T07:19:25.032Z,92.53
2019-05-18T07:21:53.460Z,91.92
2019-05-18T07:24:21.876Z,91.20
2019-05-18T07:26:50.285Z,90.67
2019-05-18T07:29:18.747Z,90.78
2019-05-18T07:31:47.184Z,90.48
2019-05-18T07:34:17.368Z,89.99
2019-05-18T07:36:45.845Z,89.68
2019-05-18T07:39:14.289Z,89.55
2019-05-18T07:41:46.900Z,89.14
2019-05-18T07:44:12.914Z,88.58
2019-05-18T07:46:41.332Z,88.99
2019-05-18T07:49:09.859Z,89.22
2019-05-18T07:51:38.364Z,88.50
2019-05-18T07:54:06.788Z,88.48
2019-05-18T07:56:35.272Z,88.31
2019-05-18T07:59:03.740Z,88.09
2019-05-18T08:01:32.177Z,88.21
2019-05-18T08:04:00.603Z,87.63
2019-05-18T08:06:29.009Z,87.63
2019-05-18T08:08:57.501Z,86.52
2019-05-18T08:11:25.916Z,85.27
2019-05-18T08:13:54.438Z,85.34
2019-05-18T08:16:22.886Z,85.26
2019-05-18T08:18:51.325Z,85.12
2019-05-18T08:21:19.743Z,84.78
2019-05-18T08:23:48.176Z,85.43
2019-05-18T08:26:16.614Z,85.63
2019-05-18T08:28:45.099Z,84.79
2019-05-18T08:31:13.591Z,84.64
2019-05-18T08:33:42.074Z,85.10
2019-05-18T08:36:10.552Z,85.85
2019-05-18T08:38:39.036Z,86.00
2019-05-18T08:41:07.596Z,85.69
2019-05-18T08:43:36.022Z,86.05
2019-05-18T08:46:04.504Z,86.05
2019-05-18T08:48:32.994Z,85.10
2019-05-18T08:51:01.424Z,85.65
2019-05-18T08:53:29.846Z,84.12
2019-05-18T08:55:58.245Z,83.12
2019-05-18T08:58:26.836Z,82.35
2019-05-18T09:00:55.293Z,83.50
2019-05-18T09:03:23.729Z,81.91
2019-05-18T09:05:52.126Z,81.41
2019-05-18T09:08:20.545Z,82.20
2019-05-18T09:10:49.063Z,83.00
2019-05-18T09:13:17.481Z,82.69
2019-05-18T09:15:45.881Z,82.88
2019-05-18T09:18:14.305Z,82.97
2019-05-18T09:20:42.736Z,82.86
2019-05-18T09:23:11.189Z,82.82
2019-05-18T09:25:39.593Z,80.33
2019-05-18T09:28:08.020Z,80.41
2019-05-18T09:30:36.548Z,80.66
2019-05-18T09:33:05.035Z,81.91
2019-05-18T09:35:33.446Z,81.50
2019-05-18T09:38:01.909Z,81.95
2019-05-18T09:40:30.368Z,80.55
2019-05-18T09:42:58.762Z,80.87
2019-05-18T09:45:27.294Z,80.20
2019-05-18T09:47:55.718Z,78.01
2019-05-18T09:50:24.213Z,76.18
2019-05-18T09:52:52.760Z,75.69
2019-05-18T09:55:21.317Z,75.98
2019-05-18T09:57:49.808Z,75.73
2019-05-18T10:00:19.673Z,76.99
2019-05-18T10:02:48.095Z,78.01
2019-05-18T10:05:16.654Z,75.98
2019-05-18T10:07:45.044Z,77.02
2019-05-18T10:10:14.191Z,76.78
2019-05-18T10:12:42.603Z,76.69
2019-05-18T10:15:11.406Z,75.48
2019-05-18T10:17:39.813Z,74.53
2019-05-18T10:20:09.280Z,74.22
2019-05-18T10:22:51.193Z,73.17
2019-05-18T10:25:08.049Z,73.46
2019-05-18T10:27:36.465Z,71.96
2019-05-18T10:30:06.988Z,71.86
2019-05-18T10:32:35.388Z,74.42
2019-05-18T10:35:05.457Z,73.71
2019-05-18T10:37:33.858Z,73.13
2019-05-18T10:40:02.280Z,73.96
2019-05-18T10:42:30.736Z,74.22
2019-05-18T10:44:59.174Z,74.47
2019-05-18T10:47:27.658Z,75.71
2019-05-18T10:49:56.237Z,75.10
2019-05-18T10:52:24.656Z,73.86
2019-05-18T10:54:53.051Z,73.81
2019-05-18T10:57:21.468Z,73.85
2019-05-18T10:59:49.878Z,73.49
2019-05-18T11:02:18.345Z,73.29
2019-05-18T11:04:46.757Z,74.77
2019-05-18T11:07:15.196Z,75.00
2019-05-18T11:09:43.616Z,74.67
2019-05-18T11:12:12.007Z,74.61
2019-05-18T11:14:40.430Z,73.51
2019-05-18T11:17:08.831Z,74.58
2019-05-18T11:19:37.249Z,72.06
2019-05-18T11:22:05.793Z,69.75
2019-05-18T11:24:34.188Z,70.68
2019-05-18T11:27:02.600Z,71.66
2019-05-18T11:29:31.002Z,72.08
2019-05-18T11:31:59.419Z,69.83
2019-05-18T11:34:27.821Z,68.45
2019-05-18T11:36:56.375Z,67.50
2019-05-18T11:39:24.944Z,69.07
2019-05-18T11:41:53.436Z,69.65
2019-05-18T11:44:21.936Z,67.12
2019-05-18T11:46:50.312Z,67.12
2019-05-18T11:49:18.745Z,65.12
2019-05-18T11:51:47.197Z,65.27
2019-05-18T11:54:15.618Z,68.13
2019-05-18T11:56:44.193Z,67.51
2019-05-18T11:59:15.619Z,65.04
2019-05-18T12:01:42.751Z,65.55
2019-05-18T12:04:11.246Z,62.34
2019-05-18T12:06:39.676Z,64.26
2019-05-18T12:09:08.218Z,63.40
2019-05-18T12:11:36.685Z,60.57
2019-05-18T12:14:05.234Z,58.23
2019-05-18T12:16:33.700Z,58.65
2019-05-18T12:19:02.120Z,57.11
2019-05-18T12:21:30.514Z,57.62
2019-05-18T12:24:14.158Z,54.22
2019-05-18T12:26:29.134Z,51.58
2019-05-18T12:28:57.551Z,52.17
2019-05-18T12:31:26.133Z,52.35
2019-05-18T12:33:54.544Z,53.18
2019-05-18T12:36:22.968Z,52.35
2019-05-18T12:38:51.365Z,52.45
2019-05-18T12:41:21.396Z,53.05
2019-05-18T12:43:49.957Z,49.28
2019-05-18T12:46:18.413Z,52.60
2019-05-18T12:48:46.834Z,51.06
2019-05-18T12:51:15.248Z,51.06
2019-05-18T12:53:43.652Z,49.43
2019-05-18T12:56:12.116Z,50.11
2019-05-18T12:58:40.523Z,46.79
2019-05-18T13:01:09.005Z,49.56
2019-05-18T13:03:37.397Z,49.59
2019-05-18T13:06:06.865Z,50.42
2019-05-18T13:08:35.245Z,47.54
2019-05-18T13:11:03.750Z,47.09
2019-05-18T13:13:32.137Z,46.89
2019-05-18T13:16:00.532Z,49.90
2019-05-18T13:18:29.021Z,49.35
2019-05-18T13:20:57.480Z,47.52
2019-05-18T13:23:25.876Z,46.61
2019-05-18T13:25:54.332Z,45.85
2019-05-18T13:28:22.809Z,45.24
2019-05-18T13:30:51.281Z,44.95
2019-05-18T13:33:19.687Z,48.12
2019-05-18T13:35:48.112Z,50.43
2019-05-18T13:38:16.522Z,45.42
2019-05-18T13:40:45.006Z,44.65
2019-05-18T13:43:13.501Z,44.88
2019-05-18T13:45:41.932Z,42.78
2019-05-18T13:48:10.341Z,43.98
2019-05-18T13:50:38.872Z,41.40
2019-05-18T13:53:07.340Z,42.07
2019-05-18T13:55:35.755Z,44.05
2019-05-18T13:58:04.223Z,39.50
2019-05-18T14:00:32.817Z,40.27
2019-05-18T14:03:01.377Z,42.14
2019-05-18T14:05:29.900Z,42.39
2019-05-18T14:07:58.393Z,42.84
2019-05-18T14:10:26.823Z,43.38
2019-05-18T14:12:55.308Z,41.93
2019-05-18T14:15:23.794Z,40.94
2019-05-18T14:17:52.338Z,42.47
2019-05-18T14:20:20.894Z,41.93
2019-05-18T14:22:49.351Z,42.88
2019-05-18T14:25:20.304Z,41.49
2019-05-18T14:27:49.622Z,40.72
2019-05-18T14:30:19.200Z,42.90
2019-05-18T14:32:47.747Z,42.46
2019-05-18T14:35:16.654Z,40.89
2019-05-18T14:37:45.146Z,39.35
2019-05-18T14:40:13.967Z,39.64
2019-05-18T14:42:42.448Z,39.56
2019-05-18T14:45:11.224Z,42.32
2019-05-18T14:47:39.672Z,43.71
2019-05-18T14:50:08.746Z,45.10
2019-05-18T14:52:37.179Z,49.31
2019-05-18T14:55:06.560Z,51.45
2019-05-18T14:57:35.116Z,52.66
2019-05-18T15:00:04.401Z,53.73
2019-05-18T15:02:32.881Z,54.44
2019-05-18T15:05:01.987Z,56.12
2019-05-18T15:07:30.801Z,55.40
2019-05-18T15:09:59.378Z,56.07
2019-05-18T15:12:27.892Z,61.67
2019-05-18T15:14:56.352Z,63.64
2019-05-18T15:17:24.767Z,65.49
2019-05-18T15:19:53.275Z,67.19
2019-05-18T15:22:21.672Z,67.37
2019-05-18T15:24:50.152Z,67.60
2019-05-18T15:27:18.650Z,68.76
2019-05-18T15:29:47.044Z,69.19
2019-05-18T15:32:15.480Z,68.82
2019-05-18T15:34:43.973Z,68.07
2019-05-18T15:37:12.454Z,67.26
2019-05-18T15:39:40.873Z,66.75
2019-05-18T15:42:09.465Z,65.58
2019-05-18T15:44:37.929Z,64.01
2019-05-18T15:47:06.331Z,62.33
2019-05-18T15:49:34.838Z,63.45
2019-05-18T15:52:03.339Z,61.48
2019-05-18T15:54:31.826Z,63.40
2019-05-18T15:57:00.327Z,62.17
2019-05-18T15:59:28.800Z,65.42
2019-05-18T16:01:57.275Z,65.13
2019-05-18T16:04:25.697Z,66.24
2019-05-18T16:06:54.190Z,67.52
2019-05-18T16:09:22.616Z,67.49
2019-05-18T16:11:51.045Z,68.02
2019-05-18T16:14:19.486Z,68.69
2019-05-18T16:16:48.228Z,66.56
2019-05-18T16:19:16.812Z,67.58
2019-05-18T16:21:45.271Z,67.54
2019-05-18T16:24:13.696Z,67.57
2019-05-18T16:26:42.180Z,67.24
2019-05-18T16:29:10.684Z,67.95
2019-05-18T16:31:39.096Z,68.02
2019-05-18T16:34:07.537Z,68.08
2019-05-18T16:36:35.935Z,67.67
2019-05-18T16:39:06.155Z,67.64
2019-05-18T16:41:34.636Z,66.39
2019-05-18T16:44:03.215Z,66.32
2019-05-18T16:46:31.642Z,68.60
2019-05-18T16:49:01.567Z,68.78
2019-05-18T16:51:29.949Z,67.42
2019-05-18T16:53:58.471Z,66.81
2019-05-18T16:56:34.877Z,67.48
2019-05-18T16:58:57.001Z,66.76
2019-05-18T17:01:25.572Z,66.61
2019-05-18T17:03:54.037Z,67.44
2019-05-18T17:06:22.456Z,66.08
2019-05-18T17:08:50.910Z,67.80
2019-05-18T17:11:19.358Z,68.27
2019-05-18T17:13:47.826Z,68.04
2019-05-18T17:16:16.241Z,68.70
2019-05-18T17:18:44.670Z,68.99
2019-05-18T17:21:13.087Z,69.97
2019-05-18T17:23:41.543Z,70.68
2019-05-18T17:26:10.080Z,70.94
2019-05-18T17:28:38.518Z,69.65
2019-05-18T17:31:07.106Z,69.42
2019-05-18T17:33:35.524Z,69.93
2019-05-18T17:36:04.004Z,69.92
2019-05-18T17:38:32.455Z,71.10
2019-05-18T17:41:01.000Z,69.24
2019-05-18T17:43:29.536Z,69.32
2019-05-18T17:45:58.004Z,70.39
2019-05-18T17:48:26.901Z,70.44
2019-05-18T17:50:55.347Z,69.85
2019-05-18T17:53:23.772Z,71.37
2019-05-18T17:55:52.324Z,70.29
2019-05-18T17:58:20.805Z,71.15
2019-05-18T18:00:49.272Z,72.12
2019-05-18T18:03:17.774Z,71.75
2019-05-18T18:05:46.311Z,71.51
2019-05-18T18:08:14.747Z,71.91
2019-05-18T18:10:43.703Z,72.41
2019-05-18T18:13:12.206Z,72.91
2019-05-18T18:15:40.650Z,73.51
2019-05-18T18:18:09.087Z,72.50
2019-05-18T18:20:37.481Z,72.74
2019-05-18T18:23:05.937Z,72.42
2019-05-18T18:25:34.669Z,72.31
2019-05-18T18:28:03.190Z,72.82
2019-05-18T18:30:31.686Z,69.91
2019-05-18T18:33:00.111Z,70.42
2019-05-18T18:35:28.531Z,70.78
2019-05-18T18:37:56.951Z,70.99
2019-05-18T18:40:25.524Z,71.56
2019-05-18T18:42:53.988Z,71.01
2019-05-18T18:45:22.552Z,71.85
2019-05-18T18:47:50.954Z,72.92
2019-05-18T18:50:19.496Z,72.83
2019-05-18T18:52:48.001Z,72.39
2019-05-18T18:55:16.550Z,73.09
2019-05-18T18:57:45.087Z,72.97
2019-05-18T19:00:14.054Z,72.74
2019-05-18T19:02:42.549Z,72.18
2019-05-18T19:05:11.415Z,72.22
2019-05-18T19:07:39.857Z,73.14
2019-05-18T19:10:08.714Z,72.32
2019-05-18T19:12:37.299Z,72.63
2019-05-18T19:15:09.803Z,72.15
2019-05-18T19:17:38.228Z,71.99
2019-05-18T19:20:07.793Z,71.89
2019-05-18T19:22:36.222Z,71.58
2019-05-18T19:25:06.283Z,71.63
2019-05-18T19:27:34.839Z,71.31
2019-05-18T19:30:09.360Z,70.95
2019-05-18T19:32:34.650Z,71.51
2019-05-18T19:35:03.091Z,73.06
2019-05-18T19:37:31.535Z,70.95
2019-05-18T19:39:59.992Z,73.12
2019-05-18T19:42:28.519Z,73.82
2019-05-18T19:44:56.929Z,73.10
2019-05-18T19:47:25.456Z,72.80
2019-05-18T19:49:53.979Z,73.88
2019-05-18T19:52:22.435Z,73.52
2019-05-18T19:54:50.875Z,73.22
2019-05-18T19:57:19.297Z,74.52
2019-05-18T19:59:47.755Z,74.37
2019-05-18T20:02:18.507Z,74.40
2019-05-18T20:05:05.623Z,74.31
2019-05-18T20:07:16.635Z,74.29
2019-05-18T20:09:45.107Z,73.51
2019-05-18T20:12:13.667Z,74.57
2019-05-18T20:14:42.147Z,74.50
2019-05-18T20:17:10.674Z,74.30
2019-05-18T20:19:39.951Z,76.64
2019-05-18T20:22:08.595Z,77.99
2019-05-18T20:24:36.996Z,77.63
2019-05-18T20:27:05.444Z,79.28
2019-05-18T20:29:33.843Z,81.51
2019-05-18T20:32:02.284Z,82.85
2019-05-18T20:34:30.773Z,83.87
2019-05-18T20:36:59.197Z,85.41
2019-05-18T20:39:27.646Z,86.09
2019-05-18T20:41:56.067Z,86.58
2019-05-18T20:44:24.584Z,87.13
2019-05-18T20:46:52.999Z,87.22
2019-05-18T20:49:21.421Z,86.97
2019-05-18T20:51:49.863Z,88.07
2019-05-18T20:54:18.257Z,86.42
2019-05-18T20:56:46.693Z,87.80
2019-05-18T20:59:15.179Z,88.14
2019-05-18T21:01:43.704Z,87.35
2019-05-18T21:04:12.175Z,88.49
2019-05-18T21:06:40.628Z,88.47
2019-05-18T21:09:09.103Z,88.29
2019-05-18T21:11:37.585Z,88.65
2019-05-18T21:14:06.071Z,89.01
2019-05-18T21:16:34.562Z,89.34
2019-05-18T21:19:03.080Z,89.26
2019-05-18T21:21:31.496Z,89.45
2019-05-18T21:23:59.952Z,89.85
2019-05-18T21:26:28.425Z,90.01
2019-05-18T21:29:00.698Z,90.09
2019-05-18T21:31:27.036Z,90.08
2019-05-18T21:33:55.574Z,91.03
2019-05-18T21:36:24.004Z,90.74
2019-05-18T21:38:52.478Z,92.31
2019-05-18T21:41:20.965Z,92.03
2019-05-18T21:43:49.395Z,92.91
2019-05-18T21:46:17.797Z,93.26
2019-05-18T21:48:46.228Z,92.91
2019-05-18T21:51:14.627Z,92.91
2019-05-18T21:53:43.034Z,92.65
2019-05-18T21:56:11.516Z,92.41
2019-05-18T21:58:39.926Z,92.05
2019-05-18T22:01:08.504Z,92.52
2019-05-18T22:03:36.916Z,92.77
2019-05-18T22:06:06.269Z,92.74
2019-05-18T22:08:34.734Z,92.66
2019-05-18T22:11:03.264Z,92.51
2019-05-18T22:13:31.691Z,92.44
2019-05-18T22:16:00.115Z,92.46
2019-05-18T22:18:28.541Z,92.18
2019-05-18T22:20:57.013Z,92.64
2019-05-18T22:23:25.603Z,93.40
2019-05-18T22:25:56.831Z,93.57
2019-05-18T22:28:24.222Z,93.58
2019-05-18T22:30:52.630Z,93.34
2019-05-18T22:33:21.067Z,93.20
2019-05-18T22:35:49.560Z,93.32
2019-05-18T22:38:18.091Z,93.33
2019-05-18T22:40:46.519Z,93.35
2019-05-18T22:43:14.987Z,93.98
2019-05-18T22:45:43.420Z,94.34
2019-05-18T22:48:11.978Z,95.63
2019-05-18T22:50:40.489Z,96.28
2019-05-18T22:53:09.016Z,96.34
2019-05-18T22:55:37.486Z,95.87
2019-05-18T22:58:05.880Z,94.50
2019-05-18T23:00:34.365Z,94.79
2019-05-18T23:03:02.878Z,95.27
2019-05-18T23:05:31.303Z,95.12
2019-05-18T23:07:59.732Z,94.63
2019-05-18T23:10:31.405Z,94.54
2019-05-18T23:12:59.822Z,95.04
2019-05-18T23:15:28.273Z,95.21
2019-05-18T23:17:56.698Z,95.74
2019-05-18T23:20:25.160Z,94.25
2019-05-18T23:22:53.582Z,93.90
2019-05-18T23:25:21.997Z,93.76
2019-05-18T23:27:50.425Z,93.52
2019-05-18T23:30:18.906Z,93.86
2019-05-18T23:32:50.353Z,94.04
2019-05-18T23:35:17.549Z,93.86
2019-05-18T23:37:45.970Z,93.26
2019-05-18T23:40:14.918Z,93.32
2019-05-18T23:42:43.310Z,92.31
2019-05-18T23:45:12.006Z,91.66
2019-05-18T23:47:40.429Z,91.83
2019-05-18T23:50:09.100Z,92.13
2019-05-18T23:52:37.505Z,92.87
2019-05-18T23:55:07.257Z,93.09
2019-05-18T23:57:35.692Z,92.13
